createdAt,value
2018-07-22T00:00:54.197Z,4.03
2018-07-22T00:05:37.730Z,4.97
2018-07-22T00:10:28.720Z,4.43
2018-07-22T00:15:19.142Z,4.23
2018-07-22T00:20:11.326Z,4.47
2018-07-22T00:24:56.099Z,4.63
2018-07-22T00:29:39.720Z,4.90
2018-07-22T00:34:23.270Z,5.20
2018-07-22T00:39:09.140Z,4.93
2018-07-22T00:43:52.667Z,5.17
2018-07-22T00:48:37.218Z,5.20
2018-07-22T00:53:20.853Z,5.23
2018-07-22T00:58:05.611Z,5.30
2018-07-22T01:02:49.346Z,5.47
2018-07-22T01:07:33.144Z,5.57
2018-07-22T01:12:18.170Z,5.10
2018-07-22T01:17:01.660Z,5.50
2018-07-22T01:21:45.293Z,6.00
2018-07-22T01:26:28.773Z,5.80
2018-07-22T01:31:12.237Z,5.87
2018-07-22T01:35:55.818Z,5.80
2018-07-22T01:40:39.275Z,5.57
2018-07-22T01:45:22.895Z,5.87
2018-07-22T01:50:06.488Z,6.23
2018-07-22T01:54:50.984Z,5.37
2018-07-22T01:59:34.553Z,5.83
2018-07-22T02:04:19.004Z,5.23
2018-07-22T02:09:02.388Z,5.83
2018-07-22T02:13:45.903Z,5.90
2018-07-22T02:18:29.378Z,5.87
2018-07-22T02:23:12.974Z,5.43
2018-07-22T02:27:57.475Z,5.67
2018-07-22T02:32:41.136Z,5.87
2018-07-22T02:37:25.678Z,6.33
2018-07-22T02:42:09.304Z,5.23
2018-07-22T02:46:53.781Z,5.97
2018-07-22T02:51:37.417Z,5.60
2018-07-22T02:56:20.911Z,6.37
2018-07-22T03:01:04.402Z,6.27
2018-07-22T03:05:47.994Z,7.03
2018-07-22T03:10:31.497Z,6.50
2018-07-22T03:15:16.253Z,6.83
2018-07-22T03:19:59.630Z,6.93
2018-07-22T03:24:44.206Z,6.93
2018-07-22T03:29:27.669Z,7.20
2018-07-22T03:34:12.221Z,7.40
2018-07-22T03:38:55.769Z,6.33
2018-07-22T03:43:39.359Z,6.80
2018-07-22T03:48:22.801Z,8.27
2018-07-22T03:53:06.408Z,6.90
2018-07-22T03:57:50.921Z,7.00
2018-07-22T04:02:34.369Z,6.50
2018-07-22T04:07:18.885Z,7.20
2018-07-22T04:12:02.505Z,7.03
2018-07-22T04:16:46.272Z,8.20
2018-07-22T04:21:29.809Z,8.03
2018-07-22T04:26:14.240Z,8.60
2018-07-22T04:30:57.634Z,8.33
2018-07-22T04:35:41.040Z,8.33
2018-07-22T04:40:24.501Z,8.33
2018-07-22T04:45:08.465Z,8.93
2018-07-22T04:49:52.047Z,8.17
2018-07-22T04:54:35.590Z,7.80
2018-07-22T04:59:19.320Z,7.30
2018-07-22T05:04:03.798Z,7.53
2018-07-22T05:08:47.220Z,8.50
2018-07-22T05:13:30.715Z,9.27
2018-07-22T05:18:15.187Z,8.07
2018-07-22T05:22:58.771Z,8.07
2018-07-22T05:27:42.445Z,7.10
2018-07-22T05:32:25.932Z,7.40
2018-07-22T05:37:10.547Z,6.37
2018-07-22T05:41:54.373Z,6.87
2018-07-22T05:46:38.386Z,7.23
2018-07-22T05:51:22.216Z,7.37
2018-07-22T05:56:05.783Z,6.90
2018-07-22T06:00:49.471Z,7.13
2018-07-22T06:05:33.126Z,6.97
2018-07-22T06:10:16.736Z,8.67
2018-07-22T06:15:01.662Z,8.93
2018-07-22T06:19:45.221Z,13.30
2018-07-22T06:24:28.921Z,19.50
2018-07-22T06:29:12.571Z,20.33
2018-07-22T06:33:56.190Z,17.40
2018-07-22T06:38:39.753Z,15.10
2018-07-22T06:43:23.301Z,15.73
2018-07-22T06:48:07.805Z,16.17
2018-07-22T06:52:51.213Z,14.70
2018-07-22T06:57:35.737Z,19.20
2018-07-22T07:02:19.336Z,19.43
2018-07-22T07:07:03.878Z,10.37
2018-07-22T07:11:47.353Z,9.93
2018-07-22T07:16:30.919Z,9.53
2018-07-22T07:21:14.458Z,11.57
2018-07-22T07:25:58.017Z,11.93
2018-07-22T07:30:41.551Z,9.40
2018-07-22T07:35:25.145Z,10.47
2018-07-22T07:40:08.628Z,9.80
2018-07-22T07:44:52.362Z,9.03
2018-07-22T07:49:36.062Z,8.77
2018-07-22T07:54:19.748Z,7.63
2018-07-22T07:59:03.181Z,7.53
2018-07-22T08:03:46.713Z,7.57
2018-07-22T08:08:30.627Z,6.80
2018-07-22T08:13:15.126Z,7.53
2018-07-22T08:17:58.605Z,6.90
2018-07-22T08:22:43.413Z,6.35
2018-07-22T08:27:27.141Z,6.85
2018-07-22T08:32:10.758Z,6.58
2018-07-22T08:36:55.325Z,7.08
2018-07-22T08:41:39.281Z,6.47
2018-07-22T08:46:22.781Z,6.93
2018-07-22T08:51:06.952Z,8.03
2018-07-22T08:55:50.702Z,7.28
2018-07-22T09:00:34.164Z,7.25
2018-07-22T09:05:17.558Z,6.60
2018-07-22T09:10:01.167Z,7.25
2018-07-22T09:14:44.680Z,7.08
2018-07-22T09:19:28.322Z,6.97
2018-07-22T09:24:11.966Z,6.30
2018-07-22T09:28:55.570Z,6.33
2018-07-22T09:33:39.235Z,7.12
2018-07-22T09:38:24.253Z,7.03
2018-07-22T09:43:07.993Z,6.20
2018-07-22T09:47:51.546Z,7.05
2018-07-22T09:52:35.113Z,6.50
2018-07-22T09:57:19.657Z,7.50
2018-07-22T10:02:03.278Z,7.15
2018-07-22T10:06:46.983Z,7.50
2018-07-22T10:11:30.610Z,6.53
2018-07-22T10:16:14.155Z,5.80
2018-07-22T10:20:57.586Z,6.60
2018-07-22T10:25:41.140Z,6.53
2018-07-22T10:30:24.649Z,6.40
2018-07-22T10:35:08.342Z,6.42
2018-07-22T10:39:51.761Z,5.90
2018-07-22T10:44:36.294Z,6.70
2018-07-22T10:49:19.942Z,6.62
2018-07-22T10:54:03.585Z,6.15
2018-07-22T10:58:47.951Z,6.10
2018-07-22T11:03:31.533Z,6.40
2018-07-22T11:08:15.226Z,5.55
2018-07-22T11:12:59.773Z,6.28
2018-07-22T11:17:43.343Z,6.08
2018-07-22T11:22:26.833Z,5.87
2018-07-22T11:27:11.276Z,6.03
2018-07-22T11:31:54.885Z,5.42
2018-07-22T11:36:38.467Z,6.17
2018-07-22T11:41:22.000Z,6.10
2018-07-22T11:46:06.406Z,6.22
2018-07-22T11:50:49.986Z,5.92
2018-07-22T11:55:33.668Z,6.08
2018-07-22T12:00:17.327Z,5.42
2018-07-22T12:05:00.782Z,5.70
2018-07-22T12:09:44.513Z,5.70
2018-07-22T12:15:57.309Z,5.37
2018-07-22T12:20:41.494Z,5.22
2018-07-22T12:25:27.921Z,5.50
2018-07-22T12:30:13.196Z,5.25
2018-07-22T12:34:57.597Z,5.00
2018-07-22T12:39:41.264Z,4.70
2018-07-22T12:44:24.771Z,5.03
2018-07-22T12:49:08.449Z,5.15
2018-07-22T12:53:53.168Z,5.03
2018-07-22T12:58:36.781Z,5.40
2018-07-22T13:03:20.412Z,5.20
2018-07-22T13:08:04.038Z,5.10
2018-07-22T13:12:47.721Z,5.50
2018-07-22T13:17:31.361Z,4.92
2018-07-22T13:22:14.843Z,5.12
2018-07-22T13:26:59.686Z,5.45
2018-07-22T13:31:43.342Z,4.80
2018-07-22T13:36:26.923Z,5.10
2018-07-22T13:41:10.438Z,6.58
2018-07-22T13:45:54.190Z,5.33
2018-07-22T13:50:38.264Z,5.05
2018-07-22T13:55:22.025Z,4.67
2018-07-22T14:00:05.655Z,4.87
2018-07-22T14:04:49.276Z,4.92
2018-07-22T14:09:32.888Z,4.35
2018-07-22T14:14:16.627Z,4.58
2018-07-22T14:19:00.185Z,4.45
2018-07-22T14:23:43.669Z,4.53
2018-07-22T14:28:27.238Z,4.95
2018-07-22T14:33:10.722Z,4.90
2018-07-22T14:37:54.299Z,4.70
2018-07-22T14:42:37.975Z,4.03
2018-07-22T14:47:21.428Z,4.92
2018-07-22T14:52:04.935Z,5.08
2018-07-22T14:56:48.985Z,4.92
2018-07-22T15:01:32.659Z,4.92
2018-07-22T15:06:18.038Z,4.67
2018-07-22T15:11:01.651Z,5.10
2018-07-22T15:15:45.415Z,4.92
2018-07-22T15:20:29.170Z,4.75
2018-07-22T15:25:12.883Z,4.40
2018-07-22T15:29:56.534Z,4.97
2018-07-22T15:34:40.289Z,5.08
2018-07-22T15:39:23.649Z,5.05
2018-07-22T15:44:07.233Z,4.85
2018-07-22T15:48:51.044Z,5.17
2018-07-22T15:53:34.391Z,4.40
2018-07-22T15:58:18.017Z,4.90
2018-07-22T16:03:01.655Z,5.17
2018-07-22T16:07:45.323Z,4.58
2018-07-22T16:12:28.921Z,5.10
2018-07-22T16:17:12.449Z,4.67
2018-07-22T16:21:56.981Z,5.33
2018-07-22T16:26:40.555Z,5.17
2018-07-22T16:31:24.075Z,5.00
2018-07-22T16:36:07.683Z,4.83
2018-07-22T16:40:51.163Z,5.60
2018-07-22T16:45:35.775Z,5.90
2018-07-22T16:50:19.238Z,5.23
2018-07-22T16:55:03.777Z,5.53
2018-07-22T16:59:47.141Z,5.00
2018-07-22T17:04:30.669Z,6.80
2018-07-22T17:09:14.242Z,4.97
2018-07-22T17:13:57.679Z,4.80
2018-07-22T17:18:41.136Z,4.40
2018-07-22T17:23:24.764Z,6.70
2018-07-22T17:28:08.367Z,4.53
2018-07-22T17:32:51.920Z,5.07
2018-07-22T17:37:38.852Z,4.30
2018-07-22T17:42:22.238Z,5.93
2018-07-22T17:47:06.271Z,4.23
2018-07-22T17:51:49.741Z,5.07
2018-07-22T17:56:33.091Z,6.60
2018-07-22T18:01:16.890Z,5.50
2018-07-22T18:06:00.787Z,5.93
2018-07-22T18:10:44.299Z,6.77
2018-07-22T18:15:27.958Z,5.67
2018-07-22T18:20:11.993Z,5.87
2018-07-22T18:24:55.938Z,6.20
2018-07-22T18:29:39.552Z,5.37
2018-07-22T18:34:23.491Z,6.40
2018-07-22T18:39:09.149Z,5.67
2018-07-22T18:43:58.009Z,5.77
2018-07-22T18:48:42.113Z,7.20
2018-07-22T18:53:27.055Z,6.20
2018-07-22T18:58:10.589Z,6.07
2018-07-22T19:02:55.162Z,6.30
2018-07-22T19:07:38.861Z,5.50
2018-07-22T19:12:23.524Z,5.40
2018-07-22T19:17:10.107Z,5.93
2018-07-22T19:21:54.690Z,5.43
2018-07-22T19:26:38.303Z,5.40
2018-07-22T19:31:21.927Z,5.50
2018-07-22T19:36:06.300Z,5.80
2018-07-22T19:40:49.836Z,5.83
2018-07-22T19:45:33.475Z,5.83
2018-07-22T19:50:16.972Z,6.47
2018-07-22T19:55:00.679Z,9.00
2018-07-22T19:59:44.269Z,9.30
2018-07-22T20:04:27.930Z,11.90
2018-07-22T20:09:12.663Z,12.40
2018-07-22T20:13:57.326Z,11.23
2018-07-22T20:18:40.953Z,9.93
2018-07-22T20:23:25.515Z,10.30
2018-07-22T20:28:09.158Z,9.50
2018-07-22T20:32:52.643Z,11.37
2018-07-22T20:37:36.237Z,10.10
2018-07-22T20:42:20.834Z,11.63
2018-07-22T20:47:04.277Z,13.07
2018-07-22T20:51:48.849Z,9.80
2018-07-22T20:56:32.208Z,12.17
2018-07-22T21:01:15.845Z,11.53
2018-07-22T21:05:59.484Z,10.30
2018-07-22T21:10:43.141Z,8.43
2018-07-22T21:15:26.780Z,7.47
2018-07-22T21:20:10.261Z,6.67
2018-07-22T21:24:53.799Z,6.70
2018-07-22T21:29:37.226Z,7.10
2018-07-22T21:34:29.874Z,7.47
2018-07-22T21:39:13.339Z,6.63
2018-07-22T21:43:56.802Z,6.03
2018-07-22T21:48:40.318Z,5.27
2018-07-22T21:53:23.759Z,5.00
2018-07-22T21:58:07.111Z,5.23
2018-07-22T22:02:51.821Z,5.20
2018-07-22T22:07:35.263Z,5.80
2018-07-22T22:12:19.673Z,5.63
2018-07-22T22:17:03.310Z,5.23
2018-07-22T22:21:47.798Z,4.67
2018-07-22T22:26:31.266Z,4.60
2018-07-22T22:31:14.950Z,4.63
2018-07-22T22:35:58.681Z,4.97
2018-07-22T22:40:42.309Z,4.70
2018-07-22T22:45:27.858Z,5.43
2018-07-22T22:50:11.421Z,4.70
2018-07-22T22:54:56.093Z,5.87
2018-07-22T22:59:39.665Z,5.67
2018-07-22T23:04:24.056Z,5.90
2018-07-22T23:09:09.456Z,5.07
2018-07-22T23:13:54.066Z,5.03
2018-07-22T23:18:37.557Z,5.67
2018-07-22T23:23:21.988Z,6.07
2018-07-22T23:28:05.664Z,5.63
2018-07-22T23:32:50.218Z,5.17
2018-07-22T23:37:33.862Z,4.87
2018-07-22T23:42:18.550Z,4.67
2018-07-22T23:47:02.064Z,4.60
2018-07-22T23:51:46.549Z,4.60
2018-07-22T23:56:30.059Z,4.33
